<?xml version="1.0" encoding="UTF-8" standalone="no" ?>
<gpx xmlns="http://www.topografix.com/GPX/1/1" xmlns:xsi="http://www.w3.org/2001/XMLSchema-instance" xsi:schemaLocation="http://www.topografix.com/GPX/1/1 http://www.topografix.com/GPX/1/1/gpx.xsd" version="1.1" creator="VisuGPX - https://www.visugpx.com">
  <metadata>
    <name>Grand Tour de Freydane</name>
    <desc><![CDATA[pic de Belledonne]]></desc>
  </metadata>
  <trk>
    <name><![CDATA[Grand Tour de Freydane]]></name>
    <trkseg>
      <trkpt lat="45.18675" lon="5.91292">
        <ele>1382.4</ele>
        <time>2016-04-20T04:15:32Z</time>
      </trkpt>
      <trkpt lat="45.18651" lon="5.91308">
        <ele>1386.5</ele>
        <time>2016-04-20T04:16:31Z</time>
      </trkpt>
      <trkpt lat="45.18585" lon="5.91316">
        <ele>1394.7</ele>
        <time>2016-04-20T04:17:26Z</time>
      </trkpt>
      <trkpt lat="45.18512" lon="5.91389">
        <ele>1416.5</ele>
        <time>2016-04-20T04:19:06Z</time>
      </trkpt>
      <trkpt lat="45.18408" lon="5.91377">
        <ele>1433.3</ele>
        <time>2016-04-20T04:20:57Z</time>
      </trkpt>
      <trkpt lat="45.18357" lon="5.91404">
        <ele>1450.9</ele>
        <time>2016-04-20T04:22:00Z</time>
      </trkpt>
      <trkpt lat="45.18234" lon="5.91431">
        <ele>1478.7</ele>
        <time>2016-04-20T04:24:28Z</time>
      </trkpt>
      <trkpt lat="45.18176" lon="5.91464">
        <ele>1489.5</ele>
        <time>2016-04-20T04:25:36Z</time>
      </trkpt>
      <trkpt lat="45.1815" lon="5.91465">
        <ele>1487.6</ele>
        <time>2016-04-20T04:26:05Z</time>
      </trkpt>
      <trkpt lat="45.18121" lon="5.91491">
        <ele>1491.6</ele>
        <time>2016-04-20T04:26:45Z</time>
      </trkpt>
      <trkpt lat="45.18131" lon="5.9153">
        <ele>1502</ele>
        <time>2016-04-20T04:27:12Z</time>
      </trkpt>
      <trkpt lat="45.18121" lon="5.9157">
        <ele>1507</ele>
        <time>2016-04-20T04:27:41Z</time>
      </trkpt>
      <trkpt lat="45.17912" lon="5.91603">
        <ele>1526.6</ele>
        <time>2016-04-20T04:31:10Z</time>
      </trkpt>
      <trkpt lat="45.17803" lon="5.91678">
        <ele>1560.2</ele>
        <time>2016-04-20T04:33:38Z</time>
      </trkpt>
      <trkpt lat="45.17842" lon="5.917">
        <ele>1569.1</ele>
        <time>2016-04-20T04:34:45Z</time>
      </trkpt>
      <trkpt lat="45.17823" lon="5.91722">
        <ele>1580</ele>
        <time>2016-04-20T04:35:22Z</time>
      </trkpt>
      <trkpt lat="45.17757" lon="5.91754">
        <ele>1597.8</ele>
        <time>2016-04-20T04:36:56Z</time>
      </trkpt>
      <trkpt lat="45.17776" lon="5.91754">
        <ele>1597.4</ele>
        <time>2016-04-20T04:37:39Z</time>
      </trkpt>
      <trkpt lat="45.17808" lon="5.91794">
        <ele>1612.8</ele>
        <time>2016-04-20T04:38:32Z</time>
      </trkpt>
      <trkpt lat="45.17776" lon="5.91803">
        <ele>1619.8</ele>
        <time>2016-04-20T04:39:31Z</time>
      </trkpt>
      <trkpt lat="45.17791" lon="5.91826">
        <ele>1627.6</ele>
        <time>2016-04-20T04:40:03Z</time>
      </trkpt>
      <trkpt lat="45.17758" lon="5.91834">
        <ele>1633.9</ele>
        <time>2016-04-20T04:40:51Z</time>
      </trkpt>
      <trkpt lat="45.17768" lon="5.9185">
        <ele>1639.3</ele>
        <time>2016-04-20T04:41:22Z</time>
      </trkpt>
      <trkpt lat="45.17722" lon="5.91865">
        <ele>1650.2</ele>
        <time>2016-04-20T04:42:19Z</time>
      </trkpt>
      <trkpt lat="45.17734" lon="5.91866">
        <ele>1649.6</ele>
        <time>2016-04-20T04:42:38Z</time>
      </trkpt>
      <trkpt lat="45.17738" lon="5.9189">
        <ele>1656.6</ele>
        <time>2016-04-20T04:42:55Z</time>
      </trkpt>
      <trkpt lat="45.17705" lon="5.91898">
        <ele>1663.9</ele>
        <time>2016-04-20T04:43:35Z</time>
      </trkpt>
      <trkpt lat="45.17717" lon="5.91979">
        <ele>1682.5</ele>
        <time>2016-04-20T04:44:47Z</time>
      </trkpt>
      <trkpt lat="45.177" lon="5.91992">
        <ele>1689.9</ele>
        <time>2016-04-20T04:45:04Z</time>
      </trkpt>
      <trkpt lat="45.17691" lon="5.92062">
        <ele>1697.5</ele>
        <time>2016-04-20T04:45:50Z</time>
      </trkpt>
      <trkpt lat="45.17654" lon="5.92078">
        <ele>1711.5</ele>
        <time>2016-04-20T04:46:25Z</time>
      </trkpt>
      <trkpt lat="45.17639" lon="5.92102">
        <ele>1716.8</ele>
        <time>2016-04-20T04:46:38Z</time>
      </trkpt>
      <trkpt lat="45.17642" lon="5.92124">
        <ele>1714.1</ele>
        <time>2016-04-20T04:46:54Z</time>
      </trkpt>
      <trkpt lat="45.17614" lon="5.92163">
        <ele>1718.4</ele>
        <time>2016-04-20T04:47:28Z</time>
      </trkpt>
      <trkpt lat="45.17581" lon="5.92181">
        <ele>1734.4</ele>
        <time>2016-04-20T04:47:48Z</time>
      </trkpt>
      <trkpt lat="45.17555" lon="5.92223">
        <ele>1740.4</ele>
        <time>2016-04-20T04:48:21Z</time>
      </trkpt>
      <trkpt lat="45.17532" lon="5.92307">
        <ele>1729.3</ele>
        <time>2016-04-20T04:49:20Z</time>
      </trkpt>
      <trkpt lat="45.17557" lon="5.92332">
        <ele>1710.9</ele>
        <time>2016-04-20T04:49:40Z</time>
      </trkpt>
      <trkpt lat="45.17556" lon="5.92362">
        <ele>1707.1</ele>
        <time>2016-04-20T04:50:20Z</time>
      </trkpt>
      <trkpt lat="45.17466" lon="5.92435">
        <ele>1729.6</ele>
        <time>2016-04-20T04:52:19Z</time>
      </trkpt>
      <trkpt lat="45.1746" lon="5.92427">
        <ele>1734.1</ele>
        <time>2016-04-20T05:03:43Z</time>
      </trkpt>
      <trkpt lat="45.17434" lon="5.92465">
        <ele>1736.9</ele>
        <time>2016-04-20T05:04:21Z</time>
      </trkpt>
      <trkpt lat="45.17412" lon="5.92456">
        <ele>1749.4</ele>
        <time>2016-04-20T05:04:45Z</time>
      </trkpt>
      <trkpt lat="45.17373" lon="5.92552">
        <ele>1747.3</ele>
        <time>2016-04-20T05:06:11Z</time>
      </trkpt>
      <trkpt lat="45.17326" lon="5.92605">
        <ele>1768.5</ele>
        <time>2016-04-20T05:07:29Z</time>
      </trkpt>
      <trkpt lat="45.1731" lon="5.92658">
        <ele>1776.1</ele>
        <time>2016-04-20T05:08:17Z</time>
      </trkpt>
      <trkpt lat="45.17274" lon="5.92678">
        <ele>1795.8</ele>
        <time>2016-04-20T05:09:03Z</time>
      </trkpt>
      <trkpt lat="45.17324" lon="5.92707">
        <ele>1780</ele>
        <time>2016-04-20T05:10:21Z</time>
      </trkpt>
      <trkpt lat="45.17324" lon="5.92787">
        <ele>1805.1</ele>
        <time>2016-04-20T05:11:24Z</time>
      </trkpt>
      <trkpt lat="45.17355" lon="5.92844">
        <ele>1807.3</ele>
        <time>2016-04-20T05:12:28Z</time>
      </trkpt>
      <trkpt lat="45.17378" lon="5.92861">
        <ele>1803.1</ele>
        <time>2016-04-20T05:13:01Z</time>
      </trkpt>
      <trkpt lat="45.17423" lon="5.92996">
        <ele>1837.7</ele>
        <time>2016-04-20T05:16:09Z</time>
      </trkpt>
      <trkpt lat="45.17442" lon="5.93092">
        <ele>1865.6</ele>
        <time>2016-04-20T05:17:34Z</time>
      </trkpt>
      <trkpt lat="45.1743" lon="5.9311">
        <ele>1874.7</ele>
        <time>2016-04-20T05:18:03Z</time>
      </trkpt>
      <trkpt lat="45.17435" lon="5.93143">
        <ele>1881.4</ele>
        <time>2016-04-20T05:18:48Z</time>
      </trkpt>
      <trkpt lat="45.17419" lon="5.93146">
        <ele>1886.7</ele>
        <time>2016-04-20T05:19:23Z</time>
      </trkpt>
      <trkpt lat="45.17416" lon="5.93208">
        <ele>1899.9</ele>
        <time>2016-04-20T05:20:20Z</time>
      </trkpt>
      <trkpt lat="45.17398" lon="5.93241">
        <ele>1909.8</ele>
        <time>2016-04-20T05:20:46Z</time>
      </trkpt>
      <trkpt lat="45.17374" lon="5.9335">
        <ele>1918.7</ele>
        <time>2016-04-20T05:21:57Z</time>
      </trkpt>
      <trkpt lat="45.17371" lon="5.93456">
        <ele>1923.2</ele>
        <time>2016-04-20T05:23:22Z</time>
      </trkpt>
      <trkpt lat="45.17385" lon="5.9349">
        <ele>1926.7</ele>
        <time>2016-04-20T05:23:52Z</time>
      </trkpt>
      <trkpt lat="45.17386" lon="5.93569">
        <ele>1941.4</ele>
        <time>2016-04-20T05:25:01Z</time>
      </trkpt>
      <trkpt lat="45.1737" lon="5.93575">
        <ele>1946.3</ele>
        <time>2016-04-20T05:25:14Z</time>
      </trkpt>
      <trkpt lat="45.17316" lon="5.9352">
        <ele>1950.2</ele>
        <time>2016-04-20T05:26:22Z</time>
      </trkpt>
      <trkpt lat="45.17282" lon="5.93523">
        <ele>1959</ele>
        <time>2016-04-20T05:27:06Z</time>
      </trkpt>
      <trkpt lat="45.17312" lon="5.9361">
        <ele>1964.7</ele>
        <time>2016-04-20T05:28:23Z</time>
      </trkpt>
      <trkpt lat="45.1729" lon="5.9363">
        <ele>1972.4</ele>
        <time>2016-04-20T05:28:50Z</time>
      </trkpt>
      <trkpt lat="45.17176" lon="5.93663">
        <ele>1978.7</ele>
        <time>2016-04-20T05:30:25Z</time>
      </trkpt>
      <trkpt lat="45.17151" lon="5.93623">
        <ele>1971.5</ele>
        <time>2016-04-20T05:31:00Z</time>
      </trkpt>
      <trkpt lat="45.17136" lon="5.9363">
        <ele>1971</ele>
        <time>2016-04-20T05:31:14Z</time>
      </trkpt>
      <trkpt lat="45.17133" lon="5.93656">
        <ele>1972.4</ele>
        <time>2016-04-20T05:31:35Z</time>
      </trkpt>
      <trkpt lat="45.17055" lon="5.9374">
        <ele>1980.1</ele>
        <time>2016-04-20T05:33:14Z</time>
      </trkpt>
      <trkpt lat="45.17009" lon="5.93737">
        <ele>1976</ele>
        <time>2016-04-20T05:34:00Z</time>
      </trkpt>
      <trkpt lat="45.16954" lon="5.93772">
        <ele>1982.1</ele>
        <time>2016-04-20T05:35:05Z</time>
      </trkpt>
      <trkpt lat="45.1685" lon="5.9391">
        <ele>2014</ele>
        <time>2016-04-20T05:37:27Z</time>
      </trkpt>
      <trkpt lat="45.16826" lon="5.93918">
        <ele>2018.4</ele>
        <time>2016-04-20T05:37:51Z</time>
      </trkpt>
      <trkpt lat="45.16784" lon="5.93904">
        <ele>2020.3</ele>
        <time>2016-04-20T05:38:47Z</time>
      </trkpt>
      <trkpt lat="45.16769" lon="5.93917">
        <ele>2028.3</ele>
        <time>2016-04-20T05:39:10Z</time>
      </trkpt>
      <trkpt lat="45.16748" lon="5.93992">
        <ele>2042</ele>
        <time>2016-04-20T05:39:59Z</time>
      </trkpt>
      <trkpt lat="45.16686" lon="5.94116">
        <ele>2061.8</ele>
        <time>2016-04-20T05:41:41Z</time>
      </trkpt>
      <trkpt lat="45.16649" lon="5.94143">
        <ele>2069.9</ele>
        <time>2016-04-20T05:42:17Z</time>
      </trkpt>
      <trkpt lat="45.16579" lon="5.94151">
        <ele>2072.8</ele>
        <time>2016-04-20T05:43:27Z</time>
      </trkpt>
      <trkpt lat="45.16533" lon="5.9426">
        <ele>2083.6</ele>
        <time>2016-04-20T05:44:48Z</time>
      </trkpt>
      <trkpt lat="45.16497" lon="5.9429">
        <ele>2104.6</ele>
        <time>2016-04-20T05:45:29Z</time>
      </trkpt>
      <trkpt lat="45.16439" lon="5.94436">
        <ele>2135.7</ele>
        <time>2016-04-20T05:48:00Z</time>
      </trkpt>
      <trkpt lat="45.16408" lon="5.94395">
        <ele>2147.4</ele>
        <time>2016-04-20T05:48:59Z</time>
      </trkpt>
      <trkpt lat="45.16397" lon="5.94447">
        <ele>2153.8</ele>
        <time>2016-04-20T05:49:57Z</time>
      </trkpt>
      <trkpt lat="45.16421" lon="5.94519">
        <ele>2157.2</ele>
        <time>2016-04-20T05:51:07Z</time>
      </trkpt>
      <trkpt lat="45.16472" lon="5.94525">
        <ele>2155.7</ele>
        <time>2016-04-20T05:52:11Z</time>
      </trkpt>
      <trkpt lat="45.16502" lon="5.94548">
        <ele>2167.2</ele>
        <time>2016-04-20T05:52:52Z</time>
      </trkpt>
      <trkpt lat="45.16494" lon="5.94564">
        <ele>2170.8</ele>
        <time>2016-04-20T05:53:13Z</time>
      </trkpt>
      <trkpt lat="45.16513" lon="5.94569">
        <ele>2174.8</ele>
        <time>2016-04-20T05:53:42Z</time>
      </trkpt>
      <trkpt lat="45.16508" lon="5.94581">
        <ele>2177.8</ele>
        <time>2016-04-20T05:53:53Z</time>
      </trkpt>
      <trkpt lat="45.16525" lon="5.94591">
        <ele>2183.7</ele>
        <time>2016-04-20T05:54:20Z</time>
      </trkpt>
      <trkpt lat="45.16545" lon="5.94687">
        <ele>2204.4</ele>
        <time>2016-04-20T05:55:53Z</time>
      </trkpt>
      <trkpt lat="45.16587" lon="5.94734">
        <ele>2221.4</ele>
        <time>2016-04-20T05:57:09Z</time>
      </trkpt>
      <trkpt lat="45.16605" lon="5.9481">
        <ele>2230.6</ele>
        <time>2016-04-20T05:58:13Z</time>
      </trkpt>
      <trkpt lat="45.16589" lon="5.94847">
        <ele>2232.8</ele>
        <time>2016-04-20T05:58:58Z</time>
      </trkpt>
      <trkpt lat="45.16597" lon="5.94845">
        <ele>2234.4</ele>
        <time>2016-04-20T05:59:12Z</time>
      </trkpt>
      <trkpt lat="45.16592" lon="5.94859">
        <ele>2235.6</ele>
        <time>2016-04-20T05:59:34Z</time>
      </trkpt>
      <trkpt lat="45.16605" lon="5.94874">
        <ele>2241.1</ele>
        <time>2016-04-20T06:00:27Z</time>
      </trkpt>
      <trkpt lat="45.16594" lon="5.94886">
        <ele>2242</ele>
        <time>2016-04-20T06:00:50Z</time>
      </trkpt>
      <trkpt lat="45.16599" lon="5.94922">
        <ele>2252.8</ele>
        <time>2016-04-20T06:01:19Z</time>
      </trkpt>
      <trkpt lat="45.16662" lon="5.95">
        <ele>2278.9</ele>
        <time>2016-04-20T06:02:28Z</time>
      </trkpt>
      <trkpt lat="45.16682" lon="5.95053">
        <ele>2281.4</ele>
        <time>2016-04-20T06:03:08Z</time>
      </trkpt>
      <trkpt lat="45.16674" lon="5.95321">
        <ele>2315.5</ele>
        <time>2016-04-20T06:06:14Z</time>
      </trkpt>
      <trkpt lat="45.16695" lon="5.95281">
        <ele>2303.8</ele>
        <time>2016-04-20T06:06:39Z</time>
      </trkpt>
      <trkpt lat="45.16681" lon="5.95228">
        <ele>2288.8</ele>
        <time>2016-04-20T06:06:59Z</time>
      </trkpt>
      <trkpt lat="45.16613" lon="5.95336">
        <ele>2321.5</ele>
        <time>2016-04-20T06:08:53Z</time>
      </trkpt>
      <trkpt lat="45.16565" lon="5.9535">
        <ele>2347.8</ele>
        <time>2016-04-20T06:10:08Z</time>
      </trkpt>
      <trkpt lat="45.16586" lon="5.95364">
        <ele>2343.1</ele>
        <time>2016-04-20T06:10:47Z</time>
      </trkpt>
      <trkpt lat="45.1658" lon="5.95373">
        <ele>2348.2</ele>
        <time>2016-04-20T06:11:08Z</time>
      </trkpt>
      <trkpt lat="45.16588" lon="5.95373">
        <ele>2345.2</ele>
        <time>2016-04-20T06:11:19Z</time>
      </trkpt>
      <trkpt lat="45.16506" lon="5.95418">
        <ele>2369.8</ele>
        <time>2016-04-20T06:12:59Z</time>
      </trkpt>
      <trkpt lat="45.16501" lon="5.954">
        <ele>2369.8</ele>
        <time>2016-04-20T06:19:37Z</time>
      </trkpt>
      <trkpt lat="45.16496" lon="5.95492">
        <ele>2372.2</ele>
        <time>2016-04-20T06:20:24Z</time>
      </trkpt>
      <trkpt lat="45.1651" lon="5.95564">
        <ele>2377.8</ele>
        <time>2016-04-20T06:21:08Z</time>
      </trkpt>
      <trkpt lat="45.16517" lon="5.95714">
        <ele>2386.5</ele>
        <time>2016-04-20T06:22:52Z</time>
      </trkpt>
      <trkpt lat="45.16501" lon="5.95774">
        <ele>2391.9</ele>
        <time>2016-04-20T06:23:40Z</time>
      </trkpt>
      <trkpt lat="45.16516" lon="5.95917">
        <ele>2414.7</ele>
        <time>2016-04-20T06:25:27Z</time>
      </trkpt>
      <trkpt lat="45.16566" lon="5.9606">
        <ele>2435</ele>
        <time>2016-04-20T06:27:36Z</time>
      </trkpt>
      <trkpt lat="45.16557" lon="5.9642">
        <ele>2402.5</ele>
        <time>2016-04-20T06:29:28Z</time>
      </trkpt>
      <trkpt lat="45.16566" lon="5.96544">
        <ele>2406.3</ele>
        <time>2016-04-20T06:31:04Z</time>
      </trkpt>
      <trkpt lat="45.16587" lon="5.9666">
        <ele>2416.9</ele>
        <time>2016-04-20T06:32:10Z</time>
      </trkpt>
      <trkpt lat="45.16605" lon="5.96897">
        <ele>2452.5</ele>
        <time>2016-04-20T06:35:14Z</time>
      </trkpt>
      <trkpt lat="45.16624" lon="5.96925">
        <ele>2450.4</ele>
        <time>2016-04-20T06:35:46Z</time>
      </trkpt>
      <trkpt lat="45.1663" lon="5.97">
        <ele>2457.5</ele>
        <time>2016-04-20T06:36:51Z</time>
      </trkpt>
      <trkpt lat="45.1662" lon="5.97031">
        <ele>2462.1</ele>
        <time>2016-04-20T06:37:16Z</time>
      </trkpt>
      <trkpt lat="45.16624" lon="5.97139">
        <ele>2477.1</ele>
        <time>2016-04-20T06:38:44Z</time>
      </trkpt>
      <trkpt lat="45.16611" lon="5.97254">
        <ele>2506.9</ele>
        <time>2016-04-20T06:40:35Z</time>
      </trkpt>
      <trkpt lat="45.16562" lon="5.97179">
        <ele>2519</ele>
        <time>2016-04-20T06:42:37Z</time>
      </trkpt>
      <trkpt lat="45.16551" lon="5.97237">
        <ele>2535.4</ele>
        <time>2016-04-20T06:43:44Z</time>
      </trkpt>
      <trkpt lat="45.16533" lon="5.97193">
        <ele>2537.4</ele>
        <time>2016-04-20T06:44:46Z</time>
      </trkpt>
      <trkpt lat="45.16525" lon="5.97227">
        <ele>2546.6</ele>
        <time>2016-04-20T06:45:21Z</time>
      </trkpt>
      <trkpt lat="45.1651" lon="5.97188">
        <ele>2547.4</ele>
        <time>2016-04-20T06:46:13Z</time>
      </trkpt>
      <trkpt lat="45.16504" lon="5.97232">
        <ele>2556.9</ele>
        <time>2016-04-20T06:47:00Z</time>
      </trkpt>
      <trkpt lat="45.16482" lon="5.97177">
        <ele>2559.4</ele>
        <time>2016-04-20T06:48:11Z</time>
      </trkpt>
      <trkpt lat="45.16454" lon="5.9727">
        <ele>2584.6</ele>
        <time>2016-04-20T06:49:40Z</time>
      </trkpt>
      <trkpt lat="45.1645" lon="5.97319">
        <ele>2591.6</ele>
        <time>2016-04-20T06:50:31Z</time>
      </trkpt>
      <trkpt lat="45.16466" lon="5.97391">
        <ele>2594.1</ele>
        <time>2016-04-20T06:51:52Z</time>
      </trkpt>
      <trkpt lat="45.16479" lon="5.97405">
        <ele>2593</ele>
        <time>2016-04-20T06:52:19Z</time>
      </trkpt>
      <trkpt lat="45.16469" lon="5.97418">
        <ele>2598.3</ele>
        <time>2016-04-20T06:52:38Z</time>
      </trkpt>
      <trkpt lat="45.16512" lon="5.97553">
        <ele>2634.6</ele>
        <time>2016-04-20T06:55:01Z</time>
      </trkpt>
      <trkpt lat="45.1654" lon="5.97607">
        <ele>2649.8</ele>
        <time>2016-04-20T06:56:28Z</time>
      </trkpt>
      <trkpt lat="45.16535" lon="5.9762">
        <ele>2656</ele>
        <time>2016-04-20T06:56:48Z</time>
      </trkpt>
      <trkpt lat="45.1655" lon="5.97626">
        <ele>2657.4</ele>
        <time>2016-04-20T06:57:18Z</time>
      </trkpt>
      <trkpt lat="45.16538" lon="5.97646">
        <ele>2665.4</ele>
        <time>2016-04-20T06:57:48Z</time>
      </trkpt>
      <trkpt lat="45.1655" lon="5.97657">
        <ele>2670</ele>
        <time>2016-04-20T06:58:15Z</time>
      </trkpt>
      <trkpt lat="45.16539" lon="5.97675">
        <ele>2676.8</ele>
        <time>2016-04-20T06:58:44Z</time>
      </trkpt>
      <trkpt lat="45.16555" lon="5.97687">
        <ele>2682.9</ele>
        <time>2016-04-20T06:59:16Z</time>
      </trkpt>
      <trkpt lat="45.16549" lon="5.97743">
        <ele>2699.7</ele>
        <time>2016-04-20T07:00:10Z</time>
      </trkpt>
      <trkpt lat="45.16557" lon="5.97767">
        <ele>2706.8</ele>
        <time>2016-04-20T07:00:33Z</time>
      </trkpt>
      <trkpt lat="45.16554" lon="5.97841">
        <ele>2716.9</ele>
        <time>2016-04-20T07:01:42Z</time>
      </trkpt>
      <trkpt lat="45.1654" lon="5.97891">
        <ele>2717.2</ele>
        <time>2016-04-20T07:02:26Z</time>
      </trkpt>
      <trkpt lat="45.16543" lon="5.9803">
        <ele>2730.7</ele>
        <time>2016-04-20T07:04:06Z</time>
      </trkpt>
      <trkpt lat="45.16534" lon="5.98088">
        <ele>2741.9</ele>
        <time>2016-04-20T07:04:59Z</time>
      </trkpt>
      <trkpt lat="45.16516" lon="5.98113">
        <ele>2747.4</ele>
        <time>2016-04-20T07:05:39Z</time>
      </trkpt>
      <trkpt lat="45.16533" lon="5.9812">
        <ele>2748.3</ele>
        <time>2016-04-20T07:06:04Z</time>
      </trkpt>
      <trkpt lat="45.16536" lon="5.98161">
        <ele>2752.9</ele>
        <time>2016-04-20T07:06:42Z</time>
      </trkpt>
      <trkpt lat="45.16585" lon="5.98271">
        <ele>2766.7</ele>
        <time>2016-04-20T07:08:26Z</time>
      </trkpt>
      <trkpt lat="45.16624" lon="5.98415">
        <ele>2777.5</ele>
        <time>2016-04-20T07:10:21Z</time>
      </trkpt>
      <trkpt lat="45.16649" lon="5.9842">
        <ele>2781.6</ele>
        <time>2016-04-20T07:10:58Z</time>
      </trkpt>
      <trkpt lat="45.16653" lon="5.98619">
        <ele>2790.3</ele>
        <time>2016-04-20T07:14:32Z</time>
      </trkpt>
      <trkpt lat="45.16731" lon="5.98675">
        <ele>2830</ele>
        <time>2016-04-20T07:16:54Z</time>
      </trkpt>
      <trkpt lat="45.16758" lon="5.98671">
        <ele>2832.8</ele>
        <time>2016-04-20T07:17:39Z</time>
      </trkpt>
      <trkpt lat="45.16761" lon="5.98765">
        <ele>2853.1</ele>
        <time>2016-04-20T07:19:27Z</time>
      </trkpt>
      <trkpt lat="45.16748" lon="5.98794">
        <ele>2851.7</ele>
        <time>2016-04-20T07:20:08Z</time>
      </trkpt>
      <trkpt lat="45.16794" lon="5.98773">
        <ele>2867.2</ele>
        <time>2016-04-20T07:21:28Z</time>
      </trkpt>
      <trkpt lat="45.16832" lon="5.98802">
        <ele>2871.6</ele>
        <time>2016-04-20T07:22:42Z</time>
      </trkpt>
      <trkpt lat="45.16848" lon="5.98799">
        <ele>2870.9</ele>
        <time>2016-04-20T07:23:10Z</time>
      </trkpt>
      <trkpt lat="45.16855" lon="5.98811">
        <ele>2873.4</ele>
        <time>2016-04-20T07:23:31Z</time>
      </trkpt>
      <trkpt lat="45.16807" lon="5.98799">
        <ele>2871.9</ele>
        <time>2016-04-20T07:42:55Z</time>
      </trkpt>
      <trkpt lat="45.16806" lon="5.98787">
        <ele>2870.6</ele>
        <time>2016-04-20T07:43:00Z</time>
      </trkpt>
      <trkpt lat="45.16785" lon="5.98794">
        <ele>2869.7</ele>
        <time>2016-04-20T07:43:10Z</time>
      </trkpt>
      <trkpt lat="45.16786" lon="5.98775">
        <ele>2865.7</ele>
        <time>2016-04-20T07:43:16Z</time>
      </trkpt>
      <trkpt lat="45.16761" lon="5.98781">
        <ele>2856.1</ele>
        <time>2016-04-20T07:43:28Z</time>
      </trkpt>
      <trkpt lat="45.16758" lon="5.98719">
        <ele>2843.6</ele>
        <time>2016-04-20T07:43:44Z</time>
      </trkpt>
      <trkpt lat="45.16749" lon="5.98713">
        <ele>2840.5</ele>
        <time>2016-04-20T07:43:48Z</time>
      </trkpt>
      <trkpt lat="45.16749" lon="5.98681">
        <ele>2833.8</ele>
        <time>2016-04-20T07:43:55Z</time>
      </trkpt>
      <trkpt lat="45.16699" lon="5.98666">
        <ele>2820.4</ele>
        <time>2016-04-20T07:44:08Z</time>
      </trkpt>
      <trkpt lat="45.16693" lon="5.98645">
        <ele>2814.8</ele>
        <time>2016-04-20T07:44:12Z</time>
      </trkpt>
      <trkpt lat="45.16668" lon="5.98634">
        <ele>2799.3</ele>
        <time>2016-04-20T07:44:18Z</time>
      </trkpt>
      <trkpt lat="45.16676" lon="5.98548">
        <ele>2798</ele>
        <time>2016-04-20T07:44:34Z</time>
      </trkpt>
      <trkpt lat="45.16666" lon="5.98538">
        <ele>2794</ele>
        <time>2016-04-20T07:44:39Z</time>
      </trkpt>
      <trkpt lat="45.16671" lon="5.98517">
        <ele>2793.5</ele>
        <time>2016-04-20T07:44:44Z</time>
      </trkpt>
      <trkpt lat="45.16658" lon="5.985">
        <ele>2788.7</ele>
        <time>2016-04-20T07:44:51Z</time>
      </trkpt>
      <trkpt lat="45.16661" lon="5.98481">
        <ele>2788</ele>
        <time>2016-04-20T07:44:55Z</time>
      </trkpt>
      <trkpt lat="45.16641" lon="5.98485">
        <ele>2784.2</ele>
        <time>2016-04-20T07:45:02Z</time>
      </trkpt>
      <trkpt lat="45.16636" lon="5.98473">
        <ele>2782.8</ele>
        <time>2016-04-20T07:45:06Z</time>
      </trkpt>
      <trkpt lat="45.1662" lon="5.98481">
        <ele>2782</ele>
        <time>2016-04-20T07:45:12Z</time>
      </trkpt>
      <trkpt lat="45.16611" lon="5.98459">
        <ele>2784.3</ele>
        <time>2016-04-20T07:45:18Z</time>
      </trkpt>
      <trkpt lat="45.16591" lon="5.9849">
        <ele>2788</ele>
        <time>2016-04-20T07:45:27Z</time>
      </trkpt>
      <trkpt lat="45.16566" lon="5.98481">
        <ele>2793.9</ele>
        <time>2016-04-20T07:45:32Z</time>
      </trkpt>
      <trkpt lat="45.16541" lon="5.98496">
        <ele>2798</ele>
        <time>2016-04-20T07:45:39Z</time>
      </trkpt>
      <trkpt lat="45.16527" lon="5.98572">
        <ele>2787.9</ele>
        <time>2016-04-20T07:45:55Z</time>
      </trkpt>
      <trkpt lat="45.1649" lon="5.98622">
        <ele>2796.5</ele>
        <time>2016-04-20T07:46:05Z</time>
      </trkpt>
      <trkpt lat="45.16459" lon="5.98724">
        <ele>2779.4</ele>
        <time>2016-04-20T07:46:24Z</time>
      </trkpt>
      <trkpt lat="45.16455" lon="5.98771">
        <ele>2756.3</ele>
        <time>2016-04-20T07:46:39Z</time>
      </trkpt>
      <trkpt lat="45.16467" lon="5.98813">
        <ele>2728.2</ele>
        <time>2016-04-20T07:46:55Z</time>
      </trkpt>
      <trkpt lat="45.16465" lon="5.98857">
        <ele>2707.3</ele>
        <time>2016-04-20T07:47:11Z</time>
      </trkpt>
      <trkpt lat="45.1645" lon="5.98867">
        <ele>2712.2</ele>
        <time>2016-04-20T07:47:21Z</time>
      </trkpt>
      <trkpt lat="45.16458" lon="5.98895">
        <ele>2687.4</ele>
        <time>2016-04-20T07:47:33Z</time>
      </trkpt>
      <trkpt lat="45.16443" lon="5.98906">
        <ele>2697.3</ele>
        <time>2016-04-20T07:47:41Z</time>
      </trkpt>
      <trkpt lat="45.16454" lon="5.98923">
        <ele>2674.3</ele>
        <time>2016-04-20T07:47:51Z</time>
      </trkpt>
      <trkpt lat="45.16423" lon="5.98954">
        <ele>2695.3</ele>
        <time>2016-04-20T07:48:17Z</time>
      </trkpt>
      <trkpt lat="45.16441" lon="5.9897">
        <ele>2658</ele>
        <time>2016-04-20T07:48:29Z</time>
      </trkpt>
      <trkpt lat="45.16422" lon="5.98991">
        <ele>2662.2</ele>
        <time>2016-04-20T07:48:49Z</time>
      </trkpt>
      <trkpt lat="45.16426" lon="5.99003">
        <ele>2646.4</ele>
        <time>2016-04-20T07:48:55Z</time>
      </trkpt>
      <trkpt lat="45.16416" lon="5.99015">
        <ele>2647.8</ele>
        <time>2016-04-20T07:49:02Z</time>
      </trkpt>
      <trkpt lat="45.1642" lon="5.99026">
        <ele>2631.9</ele>
        <time>2016-04-20T07:49:06Z</time>
      </trkpt>
      <trkpt lat="45.16401" lon="5.99046">
        <ele>2637.6</ele>
        <time>2016-04-20T07:49:24Z</time>
      </trkpt>
      <trkpt lat="45.16413" lon="5.99057">
        <ele>2616.7</ele>
        <time>2016-04-20T07:49:34Z</time>
      </trkpt>
      <trkpt lat="45.16367" lon="5.99124">
        <ele>2623</ele>
        <time>2016-04-20T07:50:07Z</time>
      </trkpt>
      <trkpt lat="45.16377" lon="5.99119">
        <ele>2620.4</ele>
        <time>2016-04-20T07:50:11Z</time>
      </trkpt>
      <trkpt lat="45.16372" lon="5.99131">
        <ele>2613.4</ele>
        <time>2016-04-20T07:50:16Z</time>
      </trkpt>
      <trkpt lat="45.16382" lon="5.99135">
        <ele>2600.3</ele>
        <time>2016-04-20T07:50:21Z</time>
      </trkpt>
      <trkpt lat="45.1637" lon="5.99151">
        <ele>2594.1</ele>
        <time>2016-04-20T07:50:29Z</time>
      </trkpt>
      <trkpt lat="45.16373" lon="5.99166">
        <ele>2577.1</ele>
        <time>2016-04-20T07:50:34Z</time>
      </trkpt>
      <trkpt lat="45.16404" lon="5.99181">
        <ele>2535.6</ele>
        <time>2016-04-20T07:50:49Z</time>
      </trkpt>
      <trkpt lat="45.16375" lon="5.99179">
        <ele>2561.8</ele>
        <time>2016-04-20T07:51:22Z</time>
      </trkpt>
      <trkpt lat="45.16385" lon="5.9919">
        <ele>2542</ele>
        <time>2016-04-20T07:51:29Z</time>
      </trkpt>
      <trkpt lat="45.16359" lon="5.99205">
        <ele>2548.4</ele>
        <time>2016-04-20T07:51:44Z</time>
      </trkpt>
      <trkpt lat="45.16363" lon="5.99216">
        <ele>2534.2</ele>
        <time>2016-04-20T07:51:49Z</time>
      </trkpt>
      <trkpt lat="45.16346" lon="5.99226">
        <ele>2539.7</ele>
        <time>2016-04-20T07:51:58Z</time>
      </trkpt>
      <trkpt lat="45.16358" lon="5.99243">
        <ele>2514.5</ele>
        <time>2016-04-20T07:52:07Z</time>
      </trkpt>
      <trkpt lat="45.1634" lon="5.99252">
        <ele>2521.8</ele>
        <time>2016-04-20T07:52:13Z</time>
      </trkpt>
      <trkpt lat="45.16359" lon="5.9927">
        <ele>2487.4</ele>
        <time>2016-04-20T07:52:23Z</time>
      </trkpt>
      <trkpt lat="45.1634" lon="5.99279">
        <ele>2497.5</ele>
        <time>2016-04-20T07:52:30Z</time>
      </trkpt>
      <trkpt lat="45.16336" lon="5.99309">
        <ele>2471</ele>
        <time>2016-04-20T07:52:39Z</time>
      </trkpt>
      <trkpt lat="45.16412" lon="5.99321">
        <ele>2415.6</ele>
        <time>2016-04-20T07:53:04Z</time>
      </trkpt>
      <trkpt lat="45.16414" lon="5.99407">
        <ele>2353.7</ele>
        <time>2016-04-20T07:53:28Z</time>
      </trkpt>
      <trkpt lat="45.16404" lon="5.99416">
        <ele>2347.7</ele>
        <time>2016-04-20T07:53:32Z</time>
      </trkpt>
      <trkpt lat="45.16414" lon="5.99424">
        <ele>2342.2</ele>
        <time>2016-04-20T07:53:36Z</time>
      </trkpt>
      <trkpt lat="45.16422" lon="5.99473">
        <ele>2310.2</ele>
        <time>2016-04-20T07:53:51Z</time>
      </trkpt>
      <trkpt lat="45.16437" lon="5.99473">
        <ele>2310.4</ele>
        <time>2016-04-20T07:54:11Z</time>
      </trkpt>
      <trkpt lat="45.16426" lon="5.99492">
        <ele>2300</ele>
        <time>2016-04-20T07:54:16Z</time>
      </trkpt>
      <trkpt lat="45.16426" lon="5.99566">
        <ele>2262.3</ele>
        <time>2016-04-20T07:54:32Z</time>
      </trkpt>
      <trkpt lat="45.16507" lon="5.99551">
        <ele>2263.2</ele>
        <time>2016-04-20T07:54:51Z</time>
      </trkpt>
      <trkpt lat="45.1653" lon="5.99559">
        <ele>2257.8</ele>
        <time>2016-04-20T07:55:05Z</time>
      </trkpt>
      <trkpt lat="45.16562" lon="5.99604">
        <ele>2245.2</ele>
        <time>2016-04-20T07:55:21Z</time>
      </trkpt>
      <trkpt lat="45.16557" lon="5.99661">
        <ele>2225.9</ele>
        <time>2016-04-20T07:55:32Z</time>
      </trkpt>
      <trkpt lat="45.16572" lon="5.99686">
        <ele>2219.9</ele>
        <time>2016-04-20T07:55:37Z</time>
      </trkpt>
      <trkpt lat="45.16547" lon="5.99738">
        <ele>2201.8</ele>
        <time>2016-04-20T07:55:47Z</time>
      </trkpt>
      <trkpt lat="45.16546" lon="5.99797">
        <ele>2186.3</ele>
        <time>2016-04-20T07:55:53Z</time>
      </trkpt>
      <trkpt lat="45.16587" lon="5.9984">
        <ele>2180.9</ele>
        <time>2016-04-20T07:56:00Z</time>
      </trkpt>
      <trkpt lat="45.16602" lon="5.9989">
        <ele>2173.7</ele>
        <time>2016-04-20T07:56:13Z</time>
      </trkpt>
      <trkpt lat="45.16615" lon="5.99884">
        <ele>2174.4</ele>
        <time>2016-04-20T08:05:30Z</time>
      </trkpt>
      <trkpt lat="45.16611" lon="5.99905">
        <ele>2173.6</ele>
        <time>2016-04-20T08:05:52Z</time>
      </trkpt>
      <trkpt lat="45.16623" lon="5.99935">
        <ele>2173.4</ele>
        <time>2016-04-20T08:07:15Z</time>
      </trkpt>
      <trkpt lat="45.16618" lon="5.99954">
        <ele>2172.6</ele>
        <time>2016-04-20T08:07:30Z</time>
      </trkpt>
      <trkpt lat="45.16628" lon="6">
        <ele>2179.6</ele>
        <time>2016-04-20T08:08:06Z</time>
      </trkpt>
      <trkpt lat="45.16634" lon="5.99997">
        <ele>2182.2</ele>
        <time>2016-04-20T08:08:25Z</time>
      </trkpt>
      <trkpt lat="45.16638" lon="6.00078">
        <ele>2191.2</ele>
        <time>2016-04-20T08:09:43Z</time>
      </trkpt>
      <trkpt lat="45.16689" lon="6.00157">
        <ele>2206.7</ele>
        <time>2016-04-20T08:10:38Z</time>
      </trkpt>
      <trkpt lat="45.16731" lon="6.00272">
        <ele>2209.3</ele>
        <time>2016-04-20T08:12:20Z</time>
      </trkpt>
      <trkpt lat="45.16746" lon="6.00284">
        <ele>2214.6</ele>
        <time>2016-04-20T08:12:50Z</time>
      </trkpt>
      <trkpt lat="45.16737" lon="6.0026">
        <ele>2214.3</ele>
        <time>2016-04-20T08:13:20Z</time>
      </trkpt>
      <trkpt lat="45.16787" lon="6.0031">
        <ele>2227.8</ele>
        <time>2016-04-20T08:14:56Z</time>
      </trkpt>
      <trkpt lat="45.16787" lon="6.0027">
        <ele>2236.2</ele>
        <time>2016-04-20T08:15:44Z</time>
      </trkpt>
      <trkpt lat="45.16797" lon="6.00272">
        <ele>2239.3</ele>
        <time>2016-04-20T08:15:59Z</time>
      </trkpt>
      <trkpt lat="45.16814" lon="6.00231">
        <ele>2255.1</ele>
        <time>2016-04-20T08:16:38Z</time>
      </trkpt>
      <trkpt lat="45.16864" lon="6.00185">
        <ele>2288.3</ele>
        <time>2016-04-20T08:17:44Z</time>
      </trkpt>
      <trkpt lat="45.16897" lon="6.00192">
        <ele>2290.4</ele>
        <time>2016-04-20T08:18:31Z</time>
      </trkpt>
      <trkpt lat="45.16978" lon="6.00179">
        <ele>2300.9</ele>
        <time>2016-04-20T08:20:09Z</time>
      </trkpt>
      <trkpt lat="45.17044" lon="6.00149">
        <ele>2305.4</ele>
        <time>2016-04-20T08:21:30Z</time>
      </trkpt>
      <trkpt lat="45.17044" lon="6.00078">
        <ele>2333.3</ele>
        <time>2016-04-20T08:22:46Z</time>
      </trkpt>
      <trkpt lat="45.17105" lon="6.00092">
        <ele>2338</ele>
        <time>2016-04-20T08:24:13Z</time>
      </trkpt>
      <trkpt lat="45.17088" lon="6.0003">
        <ele>2361.6</ele>
        <time>2016-04-20T08:25:25Z</time>
      </trkpt>
      <trkpt lat="45.17162" lon="6.00016">
        <ele>2379.2</ele>
        <time>2016-04-20T08:27:26Z</time>
      </trkpt>
      <trkpt lat="45.17141" lon="5.99996">
        <ele>2383.5</ele>
        <time>2016-04-20T08:28:08Z</time>
      </trkpt>
      <trkpt lat="45.17121" lon="5.99947">
        <ele>2404.7</ele>
        <time>2016-04-20T08:29:10Z</time>
      </trkpt>
      <trkpt lat="45.17171" lon="5.99941">
        <ele>2411.7</ele>
        <time>2016-04-20T08:30:24Z</time>
      </trkpt>
      <trkpt lat="45.17155" lon="5.99905">
        <ele>2424.8</ele>
        <time>2016-04-20T08:31:07Z</time>
      </trkpt>
      <trkpt lat="45.17195" lon="5.99871">
        <ele>2439.6</ele>
        <time>2016-04-20T08:32:19Z</time>
      </trkpt>
      <trkpt lat="45.17167" lon="5.9984">
        <ele>2454.7</ele>
        <time>2016-04-20T08:33:20Z</time>
      </trkpt>
      <trkpt lat="45.17221" lon="5.99817">
        <ele>2463.5</ele>
        <time>2016-04-20T08:34:57Z</time>
      </trkpt>
      <trkpt lat="45.17203" lon="5.99785">
        <ele>2477.7</ele>
        <time>2016-04-20T08:35:36Z</time>
      </trkpt>
      <trkpt lat="45.1723" lon="5.99757">
        <ele>2488.8</ele>
        <time>2016-04-20T08:36:39Z</time>
      </trkpt>
      <trkpt lat="45.17219" lon="5.99745">
        <ele>2495.3</ele>
        <time>2016-04-20T08:37:12Z</time>
      </trkpt>
      <trkpt lat="45.17247" lon="5.99703">
        <ele>2514.2</ele>
        <time>2016-04-20T08:40:59Z</time>
      </trkpt>
      <trkpt lat="45.17254" lon="5.99735">
        <ele>2497.6</ele>
        <time>2016-04-20T08:42:19Z</time>
      </trkpt>
      <trkpt lat="45.17266" lon="5.99721">
        <ele>2503.8</ele>
        <time>2016-04-20T08:42:48Z</time>
      </trkpt>
      <trkpt lat="45.17263" lon="5.99744">
        <ele>2492.8</ele>
        <time>2016-04-20T08:43:19Z</time>
      </trkpt>
      <trkpt lat="45.17306" lon="5.99672">
        <ele>2522.8</ele>
        <time>2016-04-20T08:44:55Z</time>
      </trkpt>
      <trkpt lat="45.17391" lon="5.99641">
        <ele>2487.4</ele>
        <time>2016-04-20T08:47:20Z</time>
      </trkpt>
      <trkpt lat="45.17378" lon="5.99633">
        <ele>2493.3</ele>
        <time>2016-04-20T08:48:00Z</time>
      </trkpt>
      <trkpt lat="45.17395" lon="5.99606">
        <ele>2500.8</ele>
        <time>2016-04-20T08:48:53Z</time>
      </trkpt>
      <trkpt lat="45.1739" lon="5.99536">
        <ele>2528.8</ele>
        <time>2016-04-20T08:50:13Z</time>
      </trkpt>
      <trkpt lat="45.17401" lon="5.9949">
        <ele>2547</ele>
        <time>2016-04-20T08:51:10Z</time>
      </trkpt>
      <trkpt lat="45.17387" lon="5.99492">
        <ele>2554</ele>
        <time>2016-04-20T08:51:37Z</time>
      </trkpt>
      <trkpt lat="45.17401" lon="5.99426">
        <ele>2574.6</ele>
        <time>2016-04-20T08:52:52Z</time>
      </trkpt>
      <trkpt lat="45.17383" lon="5.99427">
        <ele>2585.4</ele>
        <time>2016-04-20T08:53:25Z</time>
      </trkpt>
      <trkpt lat="45.17384" lon="5.99402">
        <ele>2593.9</ele>
        <time>2016-04-20T08:53:47Z</time>
      </trkpt>
      <trkpt lat="45.17403" lon="5.99394">
        <ele>2585.3</ele>
        <time>2016-04-20T08:54:20Z</time>
      </trkpt>
      <trkpt lat="45.17376" lon="5.99368">
        <ele>2610.5</ele>
        <time>2016-04-20T08:55:39Z</time>
      </trkpt>
      <trkpt lat="45.17375" lon="5.99354">
        <ele>2615.9</ele>
        <time>2016-04-20T08:55:47Z</time>
      </trkpt>
      <trkpt lat="45.17406" lon="5.99314">
        <ele>2616.1</ele>
        <time>2016-04-20T08:56:50Z</time>
      </trkpt>
      <trkpt lat="45.17407" lon="5.99294">
        <ele>2624</ele>
        <time>2016-04-20T08:57:16Z</time>
      </trkpt>
      <trkpt lat="45.17383" lon="5.99303">
        <ele>2631.8</ele>
        <time>2016-04-20T08:58:01Z</time>
      </trkpt>
      <trkpt lat="45.1738" lon="5.9928">
        <ele>2635.1</ele>
        <time>2016-04-20T08:58:18Z</time>
      </trkpt>
      <trkpt lat="45.17397" lon="5.99229">
        <ele>2622.3</ele>
        <time>2016-04-20T08:59:20Z</time>
      </trkpt>
      <trkpt lat="45.17362" lon="5.99239">
        <ele>2643.8</ele>
        <time>2016-04-20T09:00:25Z</time>
      </trkpt>
      <trkpt lat="45.17364" lon="5.99194">
        <ele>2641.4</ele>
        <time>2016-04-20T09:01:30Z</time>
      </trkpt>
      <trkpt lat="45.17373" lon="5.99188">
        <ele>2632.5</ele>
        <time>2016-04-20T09:01:46Z</time>
      </trkpt>
      <trkpt lat="45.17354" lon="5.99205">
        <ele>2650.8</ele>
        <time>2016-04-20T09:02:34Z</time>
      </trkpt>
      <trkpt lat="45.17361" lon="5.99174">
        <ele>2654.4</ele>
        <time>2016-04-20T09:03:20Z</time>
      </trkpt>
      <trkpt lat="45.17344" lon="5.99182">
        <ele>2671.4</ele>
        <time>2016-04-20T09:04:00Z</time>
      </trkpt>
      <trkpt lat="45.17349" lon="5.99147">
        <ele>2676.9</ele>
        <time>2016-04-20T09:04:45Z</time>
      </trkpt>
      <trkpt lat="45.17342" lon="5.99144">
        <ele>2684.5</ele>
        <time>2016-04-20T09:04:58Z</time>
      </trkpt>
      <trkpt lat="45.17341" lon="5.99164">
        <ele>2680.6</ele>
        <time>2016-04-20T09:05:26Z</time>
      </trkpt>
      <trkpt lat="45.17356" lon="5.99132">
        <ele>2676.8</ele>
        <time>2016-04-20T09:06:11Z</time>
      </trkpt>
      <trkpt lat="45.1734" lon="5.99139">
        <ele>2688.4</ele>
        <time>2016-04-20T09:07:03Z</time>
      </trkpt>
      <trkpt lat="45.17353" lon="5.99124">
        <ele>2681</ele>
        <time>2016-04-20T09:08:02Z</time>
      </trkpt>
      <trkpt lat="45.173" lon="5.99074">
        <ele>2692.7</ele>
        <time>2016-04-20T09:38:05Z</time>
      </trkpt>
      <trkpt lat="45.1731" lon="5.99055">
        <ele>2676.4</ele>
        <time>2016-04-20T09:38:27Z</time>
      </trkpt>
      <trkpt lat="45.17281" lon="5.99009">
        <ele>2631.2</ele>
        <time>2016-04-20T09:41:12Z</time>
      </trkpt>
      <trkpt lat="45.17366" lon="5.98955">
        <ele>2537.4</ele>
        <time>2016-04-20T09:43:45Z</time>
      </trkpt>
      <trkpt lat="45.17384" lon="5.98896">
        <ele>2532.8</ele>
        <time>2016-04-20T09:44:00Z</time>
      </trkpt>
      <trkpt lat="45.17362" lon="5.98871">
        <ele>2522.8</ele>
        <time>2016-04-20T09:44:16Z</time>
      </trkpt>
      <trkpt lat="45.17369" lon="5.98784">
        <ele>2518.3</ele>
        <time>2016-04-20T09:44:36Z</time>
      </trkpt>
      <trkpt lat="45.17353" lon="5.98771">
        <ele>2513.7</ele>
        <time>2016-04-20T09:44:43Z</time>
      </trkpt>
      <trkpt lat="45.17356" lon="5.98725">
        <ele>2503.9</ele>
        <time>2016-04-20T09:44:53Z</time>
      </trkpt>
      <trkpt lat="45.17339" lon="5.98717">
        <ele>2502</ele>
        <time>2016-04-20T09:45:00Z</time>
      </trkpt>
      <trkpt lat="45.17324" lon="5.98666">
        <ele>2494.5</ele>
        <time>2016-04-20T09:45:14Z</time>
      </trkpt>
      <trkpt lat="45.17371" lon="5.98584">
        <ele>2464.9</ele>
        <time>2016-04-20T09:45:31Z</time>
      </trkpt>
      <trkpt lat="45.1737" lon="5.985">
        <ele>2442.4</ele>
        <time>2016-04-20T09:45:43Z</time>
      </trkpt>
      <trkpt lat="45.17415" lon="5.98496">
        <ele>2426.4</ele>
        <time>2016-04-20T09:45:53Z</time>
      </trkpt>
      <trkpt lat="45.17421" lon="5.98461">
        <ele>2411.3</ele>
        <time>2016-04-20T09:46:02Z</time>
      </trkpt>
      <trkpt lat="45.17432" lon="5.98456">
        <ele>2404.6</ele>
        <time>2016-04-20T09:46:06Z</time>
      </trkpt>
      <trkpt lat="45.17429" lon="5.98447">
        <ele>2403.3</ele>
        <time>2016-04-20T09:46:09Z</time>
      </trkpt>
      <trkpt lat="45.17543" lon="5.98314">
        <ele>2357.2</ele>
        <time>2016-04-20T09:46:39Z</time>
      </trkpt>
      <trkpt lat="45.17535" lon="5.98282">
        <ele>2348</ele>
        <time>2016-04-20T09:46:45Z</time>
      </trkpt>
      <trkpt lat="45.17557" lon="5.98205">
        <ele>2333.2</ele>
        <time>2016-04-20T09:47:00Z</time>
      </trkpt>
      <trkpt lat="45.17555" lon="5.98174">
        <ele>2331.4</ele>
        <time>2016-04-20T09:47:05Z</time>
      </trkpt>
      <trkpt lat="45.17578" lon="5.98155">
        <ele>2327.8</ele>
        <time>2016-04-20T09:47:09Z</time>
      </trkpt>
      <trkpt lat="45.17574" lon="5.98126">
        <ele>2325.3</ele>
        <time>2016-04-20T09:47:13Z</time>
      </trkpt>
      <trkpt lat="45.176" lon="5.98098">
        <ele>2317</ele>
        <time>2016-04-20T09:47:18Z</time>
      </trkpt>
      <trkpt lat="45.17604" lon="5.98021">
        <ele>2306.6</ele>
        <time>2016-04-20T09:47:27Z</time>
      </trkpt>
      <trkpt lat="45.17649" lon="5.97963">
        <ele>2290.6</ele>
        <time>2016-04-20T09:47:37Z</time>
      </trkpt>
      <trkpt lat="45.17672" lon="5.97876">
        <ele>2276.7</ele>
        <time>2016-04-20T09:47:49Z</time>
      </trkpt>
      <trkpt lat="45.17687" lon="5.97701">
        <ele>2274.2</ele>
        <time>2016-04-20T09:48:11Z</time>
      </trkpt>
      <trkpt lat="45.17683" lon="5.97582">
        <ele>2266.4</ele>
        <time>2016-04-20T09:48:34Z</time>
      </trkpt>
      <trkpt lat="45.17664" lon="5.97451">
        <ele>2256.6</ele>
        <time>2016-04-20T09:48:55Z</time>
      </trkpt>
      <trkpt lat="45.1768" lon="5.97317">
        <ele>2229.8</ele>
        <time>2016-04-20T09:49:23Z</time>
      </trkpt>
      <trkpt lat="45.17677" lon="5.97251">
        <ele>2218.7</ele>
        <time>2016-04-20T09:49:35Z</time>
      </trkpt>
      <trkpt lat="45.17648" lon="5.97092">
        <ele>2216.6</ele>
        <time>2016-04-20T09:50:03Z</time>
      </trkpt>
      <trkpt lat="45.17666" lon="5.97017">
        <ele>2216.4</ele>
        <time>2016-04-20T09:50:24Z</time>
      </trkpt>
      <trkpt lat="45.17722" lon="5.9695">
        <ele>2200.8</ele>
        <time>2016-04-20T09:58:54Z</time>
      </trkpt>
      <trkpt lat="45.17683" lon="5.96751">
        <ele>2240.6</ele>
        <time>2016-04-20T10:02:07Z</time>
      </trkpt>
      <trkpt lat="45.17706" lon="5.96643">
        <ele>2253.3</ele>
        <time>2016-04-20T10:04:23Z</time>
      </trkpt>
      <trkpt lat="45.17729" lon="5.96612">
        <ele>2247</ele>
        <time>2016-04-20T10:05:35Z</time>
      </trkpt>
      <trkpt lat="45.17715" lon="5.96567">
        <ele>2257.6</ele>
        <time>2016-04-20T10:06:36Z</time>
      </trkpt>
      <trkpt lat="45.17683" lon="5.96593">
        <ele>2275.9</ele>
        <time>2016-04-20T10:07:48Z</time>
      </trkpt>
      <trkpt lat="45.17675" lon="5.96516">
        <ele>2287</ele>
        <time>2016-04-20T10:09:27Z</time>
      </trkpt>
      <trkpt lat="45.17642" lon="5.96431">
        <ele>2315.6</ele>
        <time>2016-04-20T10:11:29Z</time>
      </trkpt>
      <trkpt lat="45.17643" lon="5.96449">
        <ele>2313.6</ele>
        <time>2016-04-20T10:11:55Z</time>
      </trkpt>
      <trkpt lat="45.17613" lon="5.96492">
        <ele>2327.6</ele>
        <time>2016-04-20T10:13:16Z</time>
      </trkpt>
      <trkpt lat="45.176" lon="5.96463">
        <ele>2336.8</ele>
        <time>2016-04-20T10:13:56Z</time>
      </trkpt>
      <trkpt lat="45.17607" lon="5.96433">
        <ele>2336</ele>
        <time>2016-04-20T10:14:44Z</time>
      </trkpt>
      <trkpt lat="45.17595" lon="5.96415">
        <ele>2343.5</ele>
        <time>2016-04-20T10:15:11Z</time>
      </trkpt>
      <trkpt lat="45.17599" lon="5.96383">
        <ele>2344.8</ele>
        <time>2016-04-20T10:15:51Z</time>
      </trkpt>
      <trkpt lat="45.17588" lon="5.96358">
        <ele>2352.8</ele>
        <time>2016-04-20T10:16:41Z</time>
      </trkpt>
      <trkpt lat="45.17577" lon="5.96369">
        <ele>2356.7</ele>
        <time>2016-04-20T10:17:13Z</time>
      </trkpt>
      <trkpt lat="45.17563" lon="5.96317">
        <ele>2367.7</ele>
        <time>2016-04-20T10:18:18Z</time>
      </trkpt>
      <trkpt lat="45.17569" lon="5.9623">
        <ele>2376</ele>
        <time>2016-04-20T10:20:14Z</time>
      </trkpt>
      <trkpt lat="45.17559" lon="5.96237">
        <ele>2378.6</ele>
        <time>2016-04-20T10:22:53Z</time>
      </trkpt>
      <trkpt lat="45.17514" lon="5.96069">
        <ele>2433.9</ele>
        <time>2016-04-20T10:26:28Z</time>
      </trkpt>
      <trkpt lat="45.17521" lon="5.9601">
        <ele>2451.5</ele>
        <time>2016-04-20T10:27:33Z</time>
      </trkpt>
      <trkpt lat="45.17538" lon="5.95986">
        <ele>2451.6</ele>
        <time>2016-04-20T10:28:20Z</time>
      </trkpt>
      <trkpt lat="45.17505" lon="5.9599">
        <ele>2470.7</ele>
        <time>2016-04-20T10:29:18Z</time>
      </trkpt>
      <trkpt lat="45.17528" lon="5.9596">
        <ele>2470</ele>
        <time>2016-04-20T10:30:08Z</time>
      </trkpt>
      <trkpt lat="45.17496" lon="5.95965">
        <ele>2487.7</ele>
        <time>2016-04-20T10:31:11Z</time>
      </trkpt>
      <trkpt lat="45.17513" lon="5.95937">
        <ele>2489.7</ele>
        <time>2016-04-20T10:32:03Z</time>
      </trkpt>
      <trkpt lat="45.17489" lon="5.95937">
        <ele>2503.4</ele>
        <time>2016-04-20T10:33:02Z</time>
      </trkpt>
      <trkpt lat="45.17511" lon="5.95912">
        <ele>2501.4</ele>
        <time>2016-04-20T10:33:43Z</time>
      </trkpt>
      <trkpt lat="45.17485" lon="5.95913">
        <ele>2514.8</ele>
        <time>2016-04-20T10:34:35Z</time>
      </trkpt>
      <trkpt lat="45.17502" lon="5.95894">
        <ele>2513.6</ele>
        <time>2016-04-20T10:35:19Z</time>
      </trkpt>
      <trkpt lat="45.17479" lon="5.95902">
        <ele>2522.1</ele>
        <time>2016-04-20T10:36:09Z</time>
      </trkpt>
      <trkpt lat="45.17494" lon="5.95872">
        <ele>2525.6</ele>
        <time>2016-04-20T10:37:05Z</time>
      </trkpt>
      <trkpt lat="45.17478" lon="5.95875">
        <ele>2532.2</ele>
        <time>2016-04-20T10:37:41Z</time>
      </trkpt>
      <trkpt lat="45.17491" lon="5.95859">
        <ele>2529.4</ele>
        <time>2016-04-20T10:38:22Z</time>
      </trkpt>
      <trkpt lat="45.17477" lon="5.9586">
        <ele>2534.3</ele>
        <time>2016-04-20T10:38:49Z</time>
      </trkpt>
      <trkpt lat="45.17493" lon="5.95845">
        <ele>2531.4</ele>
        <time>2016-04-20T10:39:31Z</time>
      </trkpt>
      <trkpt lat="45.17476" lon="5.95844">
        <ele>2536</ele>
        <time>2016-04-20T10:40:13Z</time>
      </trkpt>
      <trkpt lat="45.17491" lon="5.95828">
        <ele>2535.1</ele>
        <time>2016-04-20T10:40:51Z</time>
      </trkpt>
      <trkpt lat="45.17468" lon="5.95837">
        <ele>2538.3</ele>
        <time>2016-04-20T10:41:43Z</time>
      </trkpt>
      <trkpt lat="45.17485" lon="5.95812">
        <ele>2538.3</ele>
        <time>2016-04-20T10:42:26Z</time>
      </trkpt>
      <trkpt lat="45.17461" lon="5.95818">
        <ele>2540</ele>
        <time>2016-04-20T10:43:24Z</time>
      </trkpt>
      <trkpt lat="45.1747" lon="5.95799">
        <ele>2540.2</ele>
        <time>2016-04-20T10:43:58Z</time>
      </trkpt>
      <trkpt lat="45.17451" lon="5.95804">
        <ele>2542.1</ele>
        <time>2016-04-20T10:44:50Z</time>
      </trkpt>
      <trkpt lat="45.17456" lon="5.95789">
        <ele>2539.6</ele>
        <time>2016-04-20T10:45:16Z</time>
      </trkpt>
      <trkpt lat="45.17445" lon="5.958">
        <ele>2543</ele>
        <time>2016-04-20T10:45:43Z</time>
      </trkpt>
      <trkpt lat="45.17447" lon="5.9578">
        <ele>2537.8</ele>
        <time>2016-04-20T10:46:17Z</time>
      </trkpt>
      <trkpt lat="45.17438" lon="5.95789">
        <ele>2542.4</ele>
        <time>2016-04-20T10:46:41Z</time>
      </trkpt>
      <trkpt lat="45.17445" lon="5.9575">
        <ele>2526.8</ele>
        <time>2016-04-20T10:53:55Z</time>
      </trkpt>
      <trkpt lat="45.17424" lon="5.9575">
        <ele>2529.2</ele>
        <time>2016-04-20T10:54:04Z</time>
      </trkpt>
      <trkpt lat="45.17412" lon="5.9572">
        <ele>2518.4</ele>
        <time>2016-04-20T10:54:16Z</time>
      </trkpt>
      <trkpt lat="45.17428" lon="5.95684">
        <ele>2507.1</ele>
        <time>2016-04-20T10:54:26Z</time>
      </trkpt>
      <trkpt lat="45.17402" lon="5.95656">
        <ele>2503.3</ele>
        <time>2016-04-20T10:54:37Z</time>
      </trkpt>
      <trkpt lat="45.17404" lon="5.95545">
        <ele>2494.5</ele>
        <time>2016-04-20T10:55:05Z</time>
      </trkpt>
      <trkpt lat="45.17434" lon="5.95572">
        <ele>2489.5</ele>
        <time>2016-04-20T10:55:24Z</time>
      </trkpt>
      <trkpt lat="45.17462" lon="5.95549">
        <ele>2482.6</ele>
        <time>2016-04-20T10:55:59Z</time>
      </trkpt>
      <trkpt lat="45.17451" lon="5.95525">
        <ele>2480.3</ele>
        <time>2016-04-20T10:56:27Z</time>
      </trkpt>
      <trkpt lat="45.17466" lon="5.95497">
        <ele>2467.4</ele>
        <time>2016-04-20T10:56:44Z</time>
      </trkpt>
      <trkpt lat="45.17452" lon="5.95485">
        <ele>2471.6</ele>
        <time>2016-04-20T10:56:53Z</time>
      </trkpt>
      <trkpt lat="45.17448" lon="5.95463">
        <ele>2468.8</ele>
        <time>2016-04-20T10:57:07Z</time>
      </trkpt>
      <trkpt lat="45.17456" lon="5.95466">
        <ele>2465.9</ele>
        <time>2016-04-20T10:57:17Z</time>
      </trkpt>
      <trkpt lat="45.1746" lon="5.95422">
        <ele>2456.3</ele>
        <time>2016-04-20T10:57:40Z</time>
      </trkpt>
      <trkpt lat="45.17491" lon="5.95365">
        <ele>2398.4</ele>
        <time>2016-04-20T10:58:17Z</time>
      </trkpt>
      <trkpt lat="45.17501" lon="5.95376">
        <ele>2386.2</ele>
        <time>2016-04-20T10:58:25Z</time>
      </trkpt>
      <trkpt lat="45.17496" lon="5.95319">
        <ele>2376.1</ele>
        <time>2016-04-20T10:58:49Z</time>
      </trkpt>
      <trkpt lat="45.17505" lon="5.95286">
        <ele>2351.9</ele>
        <time>2016-04-20T10:59:02Z</time>
      </trkpt>
      <trkpt lat="45.17479" lon="5.95259">
        <ele>2377</ele>
        <time>2016-04-20T10:59:10Z</time>
      </trkpt>
      <trkpt lat="45.17472" lon="5.95215">
        <ele>2365.2</ele>
        <time>2016-04-20T10:59:19Z</time>
      </trkpt>
      <trkpt lat="45.17483" lon="5.95125">
        <ele>2326.9</ele>
        <time>2016-04-20T10:59:42Z</time>
      </trkpt>
      <trkpt lat="45.17478" lon="5.95067">
        <ele>2323.9</ele>
        <time>2016-04-20T11:04:57Z</time>
      </trkpt>
      <trkpt lat="45.17457" lon="5.95035">
        <ele>2336.9</ele>
        <time>2016-04-20T11:06:08Z</time>
      </trkpt>
      <trkpt lat="45.1745" lon="5.95054">
        <ele>2348.5</ele>
        <time>2016-04-20T11:06:42Z</time>
      </trkpt>
      <trkpt lat="45.17439" lon="5.94946">
        <ele>2352.8</ele>
        <time>2016-04-20T11:09:28Z</time>
      </trkpt>
      <trkpt lat="45.17428" lon="5.94951">
        <ele>2358.2</ele>
        <time>2016-04-20T11:09:48Z</time>
      </trkpt>
      <trkpt lat="45.17382" lon="5.9486">
        <ele>2358.8</ele>
        <time>2016-04-20T11:12:30Z</time>
      </trkpt>
      <trkpt lat="45.17377" lon="5.94822">
        <ele>2352.3</ele>
        <time>2016-04-20T11:13:26Z</time>
      </trkpt>
      <trkpt lat="45.17389" lon="5.94804">
        <ele>2352</ele>
        <time>2016-04-20T11:13:51Z</time>
      </trkpt>
      <trkpt lat="45.17373" lon="5.94807">
        <ele>2350.4</ele>
        <time>2016-04-20T11:14:14Z</time>
      </trkpt>
      <trkpt lat="45.17404" lon="5.94778">
        <ele>2349.5</ele>
        <time>2016-04-20T11:23:08Z</time>
      </trkpt>
      <trkpt lat="45.17401" lon="5.94765">
        <ele>2344.1</ele>
        <time>2016-04-20T11:23:20Z</time>
      </trkpt>
      <trkpt lat="45.17375" lon="5.94774">
        <ele>2340.5</ele>
        <time>2016-04-20T11:23:38Z</time>
      </trkpt>
      <trkpt lat="45.1732" lon="5.94682">
        <ele>2294.8</ele>
        <time>2016-04-20T11:24:03Z</time>
      </trkpt>
      <trkpt lat="45.17278" lon="5.94579">
        <ele>2264.8</ele>
        <time>2016-04-20T11:24:25Z</time>
      </trkpt>
      <trkpt lat="45.17286" lon="5.94558">
        <ele>2258.6</ele>
        <time>2016-04-20T11:24:30Z</time>
      </trkpt>
      <trkpt lat="45.173" lon="5.94561">
        <ele>2256.7</ele>
        <time>2016-04-20T11:24:35Z</time>
      </trkpt>
      <trkpt lat="45.17321" lon="5.94513">
        <ele>2241.5</ele>
        <time>2016-04-20T11:24:50Z</time>
      </trkpt>
      <trkpt lat="45.17311" lon="5.94441">
        <ele>2236.4</ele>
        <time>2016-04-20T11:24:59Z</time>
      </trkpt>
      <trkpt lat="45.17364" lon="5.94357">
        <ele>2213</ele>
        <time>2016-04-20T11:25:16Z</time>
      </trkpt>
      <trkpt lat="45.17371" lon="5.94319">
        <ele>2207.7</ele>
        <time>2016-04-20T11:25:21Z</time>
      </trkpt>
      <trkpt lat="45.17362" lon="5.94287">
        <ele>2206.7</ele>
        <time>2016-04-20T11:25:26Z</time>
      </trkpt>
      <trkpt lat="45.17376" lon="5.94257">
        <ele>2191.9</ele>
        <time>2016-04-20T11:25:33Z</time>
      </trkpt>
      <trkpt lat="45.17367" lon="5.94199">
        <ele>2177.1</ele>
        <time>2016-04-20T11:25:40Z</time>
      </trkpt>
      <trkpt lat="45.17382" lon="5.94156">
        <ele>2154.9</ele>
        <time>2016-04-20T11:25:47Z</time>
      </trkpt>
      <trkpt lat="45.17338" lon="5.93966">
        <ele>2131.9</ele>
        <time>2016-04-20T11:26:13Z</time>
      </trkpt>
      <trkpt lat="45.17248" lon="5.93842">
        <ele>2067.2</ele>
        <time>2016-04-20T11:26:36Z</time>
      </trkpt>
      <trkpt lat="45.17182" lon="5.93797">
        <ele>2021.7</ele>
        <time>2016-04-20T11:26:53Z</time>
      </trkpt>
      <trkpt lat="45.17156" lon="5.93759">
        <ele>2001.7</ele>
        <time>2016-04-20T11:27:05Z</time>
      </trkpt>
      <trkpt lat="45.17153" lon="5.93734">
        <ele>1991</ele>
        <time>2016-04-20T11:27:10Z</time>
      </trkpt>
      <trkpt lat="45.17134" lon="5.93712">
        <ele>1977.6</ele>
        <time>2016-04-20T11:27:17Z</time>
      </trkpt>
      <trkpt lat="45.17143" lon="5.9369">
        <ele>1976.5</ele>
        <time>2016-04-20T11:27:23Z</time>
      </trkpt>
      <trkpt lat="45.17306" lon="5.93619">
        <ele>1967.4</ele>
        <time>2016-04-20T11:28:18Z</time>
      </trkpt>
      <trkpt lat="45.1735" lon="5.93624">
        <ele>1960.2</ele>
        <time>2016-04-20T11:28:28Z</time>
      </trkpt>
      <trkpt lat="45.1738" lon="5.93584">
        <ele>1946</ele>
        <time>2016-04-20T11:28:43Z</time>
      </trkpt>
      <trkpt lat="45.17374" lon="5.93532">
        <ele>1936.4</ele>
        <time>2016-04-20T11:28:54Z</time>
      </trkpt>
      <trkpt lat="45.1731" lon="5.93408">
        <ele>1946.3</ele>
        <time>2016-04-20T11:29:29Z</time>
      </trkpt>
      <trkpt lat="45.17305" lon="5.93377">
        <ele>1947.8</ele>
        <time>2016-04-20T11:29:36Z</time>
      </trkpt>
      <trkpt lat="45.17374" lon="5.93301">
        <ele>1922.6</ele>
        <time>2016-04-20T11:29:59Z</time>
      </trkpt>
      <trkpt lat="45.17385" lon="5.93229">
        <ele>1912.7</ele>
        <time>2016-04-20T11:30:21Z</time>
      </trkpt>
      <trkpt lat="45.17338" lon="5.93116">
        <ele>1908</ele>
        <time>2016-04-20T11:31:33Z</time>
      </trkpt>
      <trkpt lat="45.17315" lon="5.93028">
        <ele>1881.9</ele>
        <time>2016-04-20T11:31:59Z</time>
      </trkpt>
      <trkpt lat="45.17252" lon="5.92891">
        <ele>1856.9</ele>
        <time>2016-04-20T11:32:23Z</time>
      </trkpt>
      <trkpt lat="45.17278" lon="5.92767">
        <ele>1815.1</ele>
        <time>2016-04-20T11:32:57Z</time>
      </trkpt>
      <trkpt lat="45.17223" lon="5.92692">
        <ele>1830.3</ele>
        <time>2016-04-20T11:33:18Z</time>
      </trkpt>
      <trkpt lat="45.17225" lon="5.92681">
        <ele>1829.8</ele>
        <time>2016-04-20T11:33:20Z</time>
      </trkpt>
      <trkpt lat="45.17272" lon="5.92686">
        <ele>1797.8</ele>
        <time>2016-04-20T11:33:28Z</time>
      </trkpt>
      <trkpt lat="45.17306" lon="5.92667">
        <ele>1778.6</ele>
        <time>2016-04-20T11:33:35Z</time>
      </trkpt>
      <trkpt lat="45.17305" lon="5.92592">
        <ele>1780.4</ele>
        <time>2016-04-20T11:33:48Z</time>
      </trkpt>
      <trkpt lat="45.17351" lon="5.92519">
        <ele>1768</ele>
        <time>2016-04-20T11:34:08Z</time>
      </trkpt>
      <trkpt lat="45.17364" lon="5.92516">
        <ele>1760.2</ele>
        <time>2016-04-20T11:34:11Z</time>
      </trkpt>
      <trkpt lat="45.17386" lon="5.9247">
        <ele>1759</ele>
        <time>2016-04-20T11:34:20Z</time>
      </trkpt>
      <trkpt lat="45.17443" lon="5.92417">
        <ele>1747.2</ele>
        <time>2016-04-20T11:34:40Z</time>
      </trkpt>
      <trkpt lat="45.17459" lon="5.92431">
        <ele>1733.1</ele>
        <time>2016-04-20T11:44:45Z</time>
      </trkpt>
      <trkpt lat="45.17538" lon="5.92353">
        <ele>1717.2</ele>
        <time>2016-04-20T11:46:18Z</time>
      </trkpt>
      <trkpt lat="45.1752" lon="5.92313">
        <ele>1735.7</ele>
        <time>2016-04-20T11:46:47Z</time>
      </trkpt>
      <trkpt lat="45.1755" lon="5.92213">
        <ele>1747.1</ele>
        <time>2016-04-20T11:47:46Z</time>
      </trkpt>
      <trkpt lat="45.17606" lon="5.92138">
        <ele>1730.6</ele>
        <time>2016-04-20T11:48:50Z</time>
      </trkpt>
      <trkpt lat="45.17613" lon="5.92112">
        <ele>1730.4</ele>
        <time>2016-04-20T11:49:04Z</time>
      </trkpt>
      <trkpt lat="45.17654" lon="5.92067">
        <ele>1712.3</ele>
        <time>2016-04-20T11:49:42Z</time>
      </trkpt>
      <trkpt lat="45.17676" lon="5.92">
        <ele>1697.8</ele>
        <time>2016-04-20T11:50:24Z</time>
      </trkpt>
      <trkpt lat="45.17699" lon="5.91983">
        <ele>1688.8</ele>
        <time>2016-04-20T11:50:43Z</time>
      </trkpt>
      <trkpt lat="45.17708" lon="5.91925">
        <ele>1672.2</ele>
        <time>2016-04-20T11:51:16Z</time>
      </trkpt>
      <trkpt lat="45.17695" lon="5.91905">
        <ele>1667.2</ele>
        <time>2016-04-20T11:51:33Z</time>
      </trkpt>
      <trkpt lat="45.17733" lon="5.91884">
        <ele>1655.7</ele>
        <time>2016-04-20T11:52:02Z</time>
      </trkpt>
      <trkpt lat="45.17717" lon="5.9187">
        <ele>1653</ele>
        <time>2016-04-20T11:52:23Z</time>
      </trkpt>
      <trkpt lat="45.17766" lon="5.91841">
        <ele>1636.1</ele>
        <time>2016-04-20T11:53:11Z</time>
      </trkpt>
      <trkpt lat="45.17753" lon="5.91832">
        <ele>1633.5</ele>
        <time>2016-04-20T11:53:31Z</time>
      </trkpt>
      <trkpt lat="45.17788" lon="5.91823">
        <ele>1626.8</ele>
        <time>2016-04-20T11:54:06Z</time>
      </trkpt>
      <trkpt lat="45.17766" lon="5.91803">
        <ele>1620.4</ele>
        <time>2016-04-20T11:54:38Z</time>
      </trkpt>
      <trkpt lat="45.17805" lon="5.91783">
        <ele>1608.5</ele>
        <time>2016-04-20T11:55:16Z</time>
      </trkpt>
      <trkpt lat="45.17751" lon="5.91753">
        <ele>1597.5</ele>
        <time>2016-04-20T11:56:58Z</time>
      </trkpt>
      <trkpt lat="45.17766" lon="5.91729">
        <ele>1585.5</ele>
        <time>2016-04-20T11:57:17Z</time>
      </trkpt>
      <trkpt lat="45.17841" lon="5.91692">
        <ele>1565.5</ele>
        <time>2016-04-20T11:58:24Z</time>
      </trkpt>
      <trkpt lat="45.17798" lon="5.91673">
        <ele>1558.1</ele>
        <time>2016-04-20T11:59:10Z</time>
      </trkpt>
      <trkpt lat="45.17826" lon="5.91643">
        <ele>1543.5</ele>
        <time>2016-04-20T11:59:35Z</time>
      </trkpt>
      <trkpt lat="45.17928" lon="5.91592">
        <ele>1522.5</ele>
        <time>2016-04-20T12:01:02Z</time>
      </trkpt>
      <trkpt lat="45.18112" lon="5.91558">
        <ele>1505.8</ele>
        <time>2016-04-20T12:03:22Z</time>
      </trkpt>
      <trkpt lat="45.18122" lon="5.91535">
        <ele>1503</ele>
        <time>2016-04-20T12:03:37Z</time>
      </trkpt>
      <trkpt lat="45.18113" lon="5.91492">
        <ele>1491</ele>
        <time>2016-04-20T12:04:05Z</time>
      </trkpt>
      <trkpt lat="45.1815" lon="5.91453">
        <ele>1484.5</ele>
        <time>2016-04-20T12:04:38Z</time>
      </trkpt>
      <trkpt lat="45.18392" lon="5.9137">
        <ele>1433.6</ele>
        <time>2016-04-20T12:08:08Z</time>
      </trkpt>
      <trkpt lat="45.18502" lon="5.91378">
        <ele>1416.7</ele>
        <time>2016-04-20T12:09:32Z</time>
      </trkpt>
      <trkpt lat="45.18601" lon="5.91299">
        <ele>1391.4</ele>
        <time>2016-04-20T12:10:58Z</time>
      </trkpt>
      <trkpt lat="45.18665" lon="5.91292">
        <ele>1383.7</ele>
        <time>2016-04-20T12:11:50Z</time>
      </trkpt>
      <trkpt lat="45.18674" lon="5.91281">
        <ele>1380.4</ele>
        <time>2016-04-20T12:12:00Z</time>
      </trkpt>
    </trkseg>
  </trk>
</gpx>